Sirius — V7KI6 — position and weather

sailwx.info

Track history (hours):
 
Tides and Currents Weather Stations Pressure Air Temp Water Temp Dewpoint Dewpoint Depression Visibility Wind Speed Wind Dir Waves Ship Positions

Sirius

Last reported at 2014-Jul-16 13:31 UTC. Time now 2014-Jul-24 05:54 UTC.
Position N 31°13' E 032°21'.

Length 178.1 m; beam 28.2 m; draft 11.5 m.

Type: Cargo ship. MMSI: 538090245.

Date/timePositionNaut miles runAvg speedWind from/ knotsBaromVisibWave heightAir tempDewpointWater temp
2014-Jul-16 13:31N 31°13' E 032°21'0 0.0
2014-Jul-16 11:07N 31°13' E 032°21'11 0.6
2014-Jul-15 17:30N 31°22' E 032°17'0 0.0
2014-Jul-15 16:33N 31°22' E 032°17'0 0.0
2014-Jul-15 14:33N 31°22' E 032°17'0 0.0
2014-Jul-15 13:33N 31°22' E 032°17'0 0.0
2014-Jul-15 12:33N 31°22' E 032°17'0 0.0
2014-Jul-15 11:24N 31°22' E 032°17'0 0.1
2014-Jul-15 10:24N 31°23' E 032°17'200 4.7
2014-Jul-13 15:33N 34°13' E 034°22'2019.5
2014-Jul-13 14:33N 34°20' E 034°00'1919.3
2014-Jul-13 13:33N 34°27' E 033°39'1919.4
2014-Jul-13 12:33N 34°34' E 033°17'1413.4
2014-Jul-13 11:32N 34°39' E 033°01'0 0.2
2014-Jul-13 10:32N 34°39' E 033°01'0 0.0
2014-Jul-13 09:32N 34°39' E 033°01'0 0.0
2014-Jul-13 08:32N 34°39' E 033°01'0 0.0
2014-Jul-13 07:32N 34°39' E 033°01'0 0.0
2014-Jul-13 06:32N 34°39' E 033°01'0 0.0
2014-Jul-13 05:32N 34°39' E 033°01'0 0.0
2014-Jul-13 04:30N 34°39' E 033°01'3 2.8
2014-Jul-13 03:33N 34°40' E 033°04'1 0.7
2014-Jul-13 02:32N 34°40' E 033°05'0 0.0
2014-Jul-13 01:32N 34°40' E 033°05'0 0.0
2014-Jul-13 00:32N 34°40' E 033°05'0 0.0
2014-Jul-12 23:32N 34°40' E 033°05'0 0.0
2014-Jul-12 22:20N 34°40' E 033°05'0 0.0
2014-Jul-12 21:32N 34°40' E 033°05'0 0.0
2014-Jul-12 20:32N 34°40' E 033°05'0 0.0
2014-Jul-12 19:32N 34°40' E 033°05'1 0.5
2014-Jul-12 18:33N 34°40' E 033°05'1413.6
2014-Jul-12 17:33N 34°39' E 033°22'1616.6
2014-Jul-12 16:33N 34°41' E 033°42'1717.0
2014-Jul-12 15:33N 34°49' E 034°00'2417.1
2014-Jul-12 14:10N 35°01' E 034°25'1217.0
2014-Jul-12 13:29N 35°07' E 034°37'  
2014-Jul-07 18:33N 35°37' E 016°06'1818.5
2014-Jul-07 17:33N 35°40' E 015°43'1818.3
2014-Jul-07 16:34N 35°42' E 015°21'1818.5
2014-Jul-07 15:34N 35°45' E 014°59'1817.9
2014-Jul-07 14:34N 35°47' E 014°37'4 3.9
2014-Jul-07 13:31N 35°49' E 014°32'0 0.0
2014-Jul-07 12:31N 35°49' E 014°32'0 0.0
2014-Jul-07 11:31N 35°49' E 014°32'0 0.0
2014-Jul-07 10:31N 35°49' E 014°32'0 0.0
2014-Jul-07 08:28N 35°49' E 014°32'0 0.0
2014-Jul-07 07:31N 35°49' E 014°32'0 0.0
2014-Jul-07 06:31N 35°49' E 014°32'0 0.0
2014-Jul-07 05:31N 35°49' E 014°32'0 0.0
2014-Jul-07 04:31N 35°49' E 014°32'0 0.0
2014-Jul-07 03:13N 35°49' E 014°32'0 0.0
2014-Jul-07 02:31N 35°49' E 014°32'3 3.5
2014-Jul-07 01:34N 35°48' E 014°36'3 2.9
2014-Jul-07 00:34N 35°50' E 014°39'0 0.0
2014-Jul-06 23:33N 35°50' E 014°39'0 0.0
2014-Jul-06 22:33N 35°50' E 014°39'0 0.0
2014-Jul-06 21:33N 35°50' E 014°39'0 0.0
2014-Jul-06 20:33N 35°50' E 014°39'0 0.1
2014-Jul-06 19:33N 35°50' E 014°39'0 0.0
2014-Jul-06 18:33N 35°50' E 014°39'0 0.1
2014-Jul-06 17:33N 35°50' E 014°39'0 0.0
2014-Jul-06 16:33N 35°50' E 014°39'0 0.0
2014-Jul-06 15:33N 35°50' E 014°39'0 0.0
2014-Jul-06 14:33N 35°50' E 014°39'0 0.0
2014-Jul-06 13:33N 35°50' E 014°39'  
Track history (hours):
 
Tides and Currents Weather Stations Pressure Air Temp Water Temp Dewpoint Dewpoint Depression Visibility Wind Speed Wind Dir Waves Ship Positions

Sirius

Last reported at 2014-Jul-16 13:31 UTC. Time now 2014-Jul-24 05:54 UTC.
Position N 31°13' E 032°21'.

Length 178.1 m; beam 28.2 m; draft 11.5 m.

Type: Cargo ship. MMSI: 538090245.

Date/timePositionNaut miles runAvg speedWind from/ knotsBaromVisibWave heightAir tempDewpointWater temp
2014-Jul-16 13:31N 31°13' E 032°21'0 0.0
2014-Jul-16 11:07N 31°13' E 032°21'11 0.6
2014-Jul-15 17:30N 31°22' E 032°17'0 0.0
2014-Jul-15 16:33N 31°22' E 032°17'0 0.0
2014-Jul-15 14:33N 31°22' E 032°17'0 0.0
2014-Jul-15 13:33N 31°22' E 032°17'0 0.0
2014-Jul-15 12:33N 31°22' E 032°17'0 0.0
2014-Jul-15 11:24N 31°22' E 032°17'0 0.1
2014-Jul-15 10:24N 31°23' E 032°17'200 4.7
2014-Jul-13 15:33N 34°13' E 034°22'2019.5
2014-Jul-13 14:33N 34°20' E 034°00'1919.3
2014-Jul-13 13:33N 34°27' E 033°39'1919.4
2014-Jul-13 12:33N 34°34' E 033°17'1413.4
2014-Jul-13 11:32N 34°39' E 033°01'0 0.2
2014-Jul-13 10:32N 34°39' E 033°01'0 0.0
2014-Jul-13 09:32N 34°39' E 033°01'0 0.0
2014-Jul-13 08:32N 34°39' E 033°01'0 0.0
2014-Jul-13 07:32N 34°39' E 033°01'0 0.0
2014-Jul-13 06:32N 34°39' E 033°01'0 0.0
2014-Jul-13 05:32N 34°39' E 033°01'0 0.0
2014-Jul-13 04:30N 34°39' E 033°01'3 2.8
2014-Jul-13 03:33N 34°40' E 033°04'1 0.7
2014-Jul-13 02:32N 34°40' E 033°05'0 0.0
2014-Jul-13 01:32N 34°40' E 033°05'0 0.0
2014-Jul-13 00:32N 34°40' E 033°05'0 0.0
2014-Jul-12 23:32N 34°40' E 033°05'0 0.0
2014-Jul-12 22:20N 34°40' E 033°05'0 0.0
2014-Jul-12 21:32N 34°40' E 033°05'0 0.0
2014-Jul-12 20:32N 34°40' E 033°05'0 0.0
2014-Jul-12 19:32N 34°40' E 033°05'1 0.5
2014-Jul-12 18:33N 34°40' E 033°05'1413.6
2014-Jul-12 17:33N 34°39' E 033°22'1616.6
2014-Jul-12 16:33N 34°41' E 033°42'1717.0
2014-Jul-12 15:33N 34°49' E 034°00'2417.1
2014-Jul-12 14:10N 35°01' E 034°25'1217.0
2014-Jul-12 13:29N 35°07' E 034°37'  
2014-Jul-07 18:33N 35°37' E 016°06'1818.5
2014-Jul-07 17:33N 35°40' E 015°43'1818.3
2014-Jul-07 16:34N 35°42' E 015°21'1818.5
2014-Jul-07 15:34N 35°45' E 014°59'1817.9
2014-Jul-07 14:34N 35°47' E 014°37'4 3.9
2014-Jul-07 13:31N 35°49' E 014°32'0 0.0
2014-Jul-07 12:31N 35°49' E 014°32'0 0.0
2014-Jul-07 11:31N 35°49' E 014°32'0 0.0
2014-Jul-07 10:31N 35°49' E 014°32'0 0.0
2014-Jul-07 08:28N 35°49' E 014°32'0 0.0
2014-Jul-07 07:31N 35°49' E 014°32'0 0.0
2014-Jul-07 06:31N 35°49' E 014°32'0 0.0
2014-Jul-07 05:31N 35°49' E 014°32'0 0.0
2014-Jul-07 04:31N 35°49' E 014°32'0 0.0
2014-Jul-07 03:13N 35°49' E 014°32'0 0.0
2014-Jul-07 02:31N 35°49' E 014°32'3 3.5
2014-Jul-07 01:34N 35°48' E 014°36'3 2.9
2014-Jul-07 00:34N 35°50' E 014°39'0 0.0
2014-Jul-06 23:33N 35°50' E 014°39'0 0.0
2014-Jul-06 22:33N 35°50' E 014°39'0 0.0
2014-Jul-06 21:33N 35°50' E 014°39'0 0.0
2014-Jul-06 20:33N 35°50' E 014°39'0 0.1
2014-Jul-06 19:33N 35°50' E 014°39'0 0.0
2014-Jul-06 18:33N 35°50' E 014°39'0 0.1
2014-Jul-06 17:33N 35°50' E 014°39'0 0.0
2014-Jul-06 16:33N 35°50' E 014°39'0 0.0
2014-Jul-06 15:33N 35°50' E 014°39'0 0.0
2014-Jul-06 14:33N 35°50' E 014°39'0 0.0
2014-Jul-06 13:33N 35°50' E 014°39'  

Dump ship's entire track history